Time;durP1;ratioP1;P1;durP2;ratioP2;P2;SDS_P1;SDS_P2;PMS_P1;PMS_P2;Temp;Humidity;BMP_temperature;BMP_pressure;BME280_temperature;BME280_humidity;BME280_pressure;Samples;Min_cycle;Max_cycle;Signal;HPM_P1;HPM_P2
2023/10/05 00:02:00;;;;;;;4.00;1.30;;;14.20;99.90;;;;;;5070035;28;20544;-55
2023/10/05 00:04:27;;;;;;;4.68;1.40;;;14.20;99.90;;;;;;5065072;28;20495;-48
2023/10/05 00:06:56;;;;;;;7.35;1.75;;;14.20;99.90;;;;;;5060865;28;20037;-54
2023/10/05 00:09:24;;;;;;;8.57;1.40;;;14.20;99.90;;;;;;5062755;28;20049;-49
2023/10/05 00:11:56;;;;;;;3.80;1.17;;;14.20;99.90;;;;;;5072537;28;20076;-50
2023/10/05 00:14:24;;;;;;;1.95;0.90;;;14.20;99.90;;;;;;5070778;28;20021;-52
2023/10/05 00:16:49;;;;;;;3.30;1.08;;;14.20;99.90;;;;;;5062691;28;20033;-48
2023/10/05 00:19:17;;;;;;;6.10;1.35;;;14.20;99.90;;;;;;5054793;28;20031;-47
2023/10/05 00:21:56;;;;;;;8.18;1.67;;;14.20;99.90;;;;;;5046204;28;20117;-54
2023/10/05 00:24:35;;;;;;;2.93;1.27;;;14.20;99.90;;;;;;5065170;28;20029;-51
2023/10/05 00:27:08;;;;;;;3.05;1.45;;;14.20;99.90;;;;;;5053540;28;20033;-46
2023/10/05 00:29:41;;;;;;;3.90;1.08;;;14.20;99.90;;;;;;5065751;28;20033;-46
2023/10/05 00:32:34;;;;;;;2.78;1.10;;;14.10;99.90;;;;;;5053615;28;20084;-47
2023/10/05 00:35:16;;;;;;;7.32;1.65;;;14.20;99.90;;;;;;5061377;28;20068;-46
2023/10/05 00:37:44;;;;;;;5.20;1.67;;;14.10;99.90;;;;;;5067282;28;20025;-49
2023/10/05 00:40:12;;;;;;;3.50;1.20;;;14.20;99.90;;;;;;5065723;28;20028;-46
2023/10/05 00:42:38;;;;;;;2.92;1.00;;;14.20;99.90;;;;;;5072054;28;20032;-51
2023/10/05 00:45:06;;;;;;;4.55;1.40;;;14.20;99.90;;;;;;5063226;28;20112;-47
2023/10/05 00:47:32;;;;;;;3.42;1.08;;;14.10;99.90;;;;;;5065064;28;20036;-55
2023/10/05 00:49:58;;;;;;;2.78;1.00;;;14.10;99.90;;;;;;5068565;28;20128;-49
2023/10/05 00:52:24;;;;;;;2.67;1.08;;;14.10;99.90;;;;;;5070944;28;20119;-46
2023/10/05 00:54:54;;;;;;;4.13;1.40;;;14.10;99.90;;;;;;5072310;28;20051;-54
2023/10/05 00:57:22;;;;;;;5.93;1.42;;;14.10;99.90;;;;;;5054217;28;20055;-52
2023/10/05 01:02:35;;;;;;;4.78;1.25;;;14.10;99.90;;;;;;5067790;28;20096;-45
2023/10/05 01:05:08;;;;;;;4.47;1.23;;;14.00;99.90;;;;;;5055584;28;20489;-45
2023/10/05 01:10:28;;;;;;;8.07;1.35;;;14.00;99.90;;;;;;5057032;28;20033;-45
2023/10/05 01:12:48;;;;;;;8.25;2.45;;;14.00;99.90;;;;;;5062399;28;20041;-54
2023/10/05 01:15:19;;;;;;;5.18;1.35;;;14.10;99.90;;;;;;5049417;28;20064;-49
2023/10/05 01:17:47;;;;;;;3.78;1.23;;;14.00;99.90;;;;;;5058114;28;20029;-53
2023/10/05 01:22:45;;;;;;;5.90;1.30;;;14.10;99.90;;;;;;5052356;28;20021;-55
2023/10/05 01:25:14;;;;;;;6.30;1.50;;;14.00;99.90;;;;;;5052425;28;20023;-50
2023/10/05 01:27:47;;;;;;;3.70;1.13;;;14.00;99.90;;;;;;5064954;28;20424;-57
2023/10/05 01:30:16;;;;;;;3.03;1.13;;;14.00;99.90;;;;;;5062934;28;20060;-57
2023/10/05 01:32:43;;;;;;;5.82;1.17;;;14.00;99.90;;;;;;5063051;28;20048;-53
2023/10/05 01:35:13;;;;;;;5.05;1.30;;;14.00;99.90;;;;;;5056253;28;20033;-53
2023/10/05 01:37:44;;;;;;;2.58;0.95;;;14.00;99.90;;;;;;5053716;28;20032;-48
2023/10/05 01:40:20;;;;;;;7.85;1.15;;;14.00;99.90;;;;;;5061994;28;20029;-52
2023/10/05 01:42:51;;;;;;;4.47;1.20;;;14.00;99.90;;;;;;5064445;28;20024;-50
2023/10/05 01:45:29;;;;;;;5.13;1.15;;;14.00;99.90;;;;;;5056330;28;20024;-48
2023/10/05 01:47:57;;;;;;;3.60;1.30;;;14.00;99.90;;;;;;5061052;28;20050;-46
2023/10/05 01:50:23;;;;;;;2.65;1.10;;;14.00;99.90;;;;;;5054664;28;20040;-46
2023/10/05 01:53:06;;;;;;;3.20;1.13;;;14.00;99.90;;;;;;5064707;28;20100;-46
2023/10/05 01:55:34;;;;;;;5.38;1.33;;;13.90;99.90;;;;;;5060037;28;20036;-48
2023/10/05 01:58:00;;;;;;;4.68;1.40;;;13.90;99.90;;;;;;5062984;28;20381;-45
2023/10/05 02:00:26;;;;;;;4.47;1.13;;;13.90;99.90;;;;;;5069138;28;20029;-48
2023/10/05 02:02:55;;;;;;;2.83;1.05;;;13.90;99.90;;;;;;5067379;28;20104;-47
2023/10/05 02:05:21;;;;;;;4.13;0.97;;;13.90;99.90;;;;;;5057132;28;20021;-46
2023/10/05 02:07:49;;;;;;;2.58;0.90;;;13.90;99.90;;;;;;5064084;28;20072;-49
2023/10/05 02:10:19;;;;;;;4.68;1.20;;;13.80;99.90;;;;;;5051352;28;20068;-49
2023/10/05 02:12:54;;;;;;;3.50;1.15;;;13.80;99.90;;;;;;5055696;28;20028;-50
2023/10/05 02:15:28;;;;;;;2.53;1.17;;;13.90;99.90;;;;;;5051315;28;20541;-53
2023/10/05 02:17:55;;;;;;;3.60;1.20;;;13.90;99.90;;;;;;5058410;28;20032;-45
2023/10/05 02:22:58;;;;;;;5.47;1.23;;;13.80;99.90;;;;;;5058463;28;20029;-47
2023/10/05 02:25:33;;;;;;;2.38;0.93;;;13.80;99.90;;;;;;5051495;28;20032;-52
2023/10/05 02:27:59;;;;;;;4.13;1.20;;;13.70;99.90;;;;;;5059086;28;20060;-45
2023/10/05 02:30:27;;;;;;;5.13;1.42;;;13.60;99.90;;;;;;5051805;28;20048;-49
2023/10/05 02:32:55;;;;;;;2.00;1.05;;;13.60;99.90;;;;;;5062642;28;20049;-46
2023/10/05 02:35:32;;;;;;;4.80;1.13;;;13.50;99.90;;;;;;5052094;28;20028;-54
2023/10/05 02:37:59;;;;;;;2.70;1.00;;;13.50;99.90;;;;;;5063138;28;20017;-52
2023/10/05 02:40:35;;;;;;;5.28;1.20;;;13.50;99.90;;;;;;5063216;28;20029;-54
2023/10/05 02:43:03;;;;;;;5.65;1.33;;;13.50;99.90;;;;;;5054974;28;20040;-47
2023/10/05 02:45:29;;;;;;;3.55;1.27;;;13.40;99.90;;;;;;5050615;28;20062;-48
2023/10/05 02:47:55;;;;;;;5.28;1.77;;;13.40;99.90;;;;;;5069529;28;20113;-49
2023/10/05 02:50:21;;;;;;;3.85;1.17;;;13.40;99.90;;;;;;5055273;28;20084;-45
2023/10/05 02:52:47;;;;;;;5.38;1.58;;;13.30;99.90;;;;;;5063312;28;20024;-53
2023/10/05 02:55:14;;;;;;;2.70;1.27;;;13.40;99.90;;;;;;5052884;28;20024;-51
2023/10/05 02:57:43;;;;;;;4.03;1.50;;;13.30;99.90;;;;;;5052361;28;20397;-46
2023/10/05 03:00:11;;;;;;;4.73;1.20;;;13.30;99.90;;;;;;5053265;28;20029;-52
2023/10/05 03:02:45;;;;;;;3.55;1.30;;;13.30;99.90;;;;;;5067375;28;20031;-51
2023/10/05 03:05:11;;;;;;;3.67;1.20;;;13.30;99.90;;;;;;5062003;28;20024;-49
2023/10/05 03:07:41;;;;;;;2.28;1.00;;;13.30;99.90;;;;;;5054466;28;20055;-48
2023/10/05 03:10:11;;;;;;;3.15;1.23;;;13.30;99.90;;;;;;5050653;28;20029;-50
2023/10/05 03:12:36;;;;;;;4.72;1.17;;;13.30;99.90;;;;;;5066520;28;20081;-48
2023/10/05 03:15:06;;;;;;;3.17;1.10;;;13.30;99.90;;;;;;5057676;28;20029;-49
2023/10/05 03:17:33;;;;;;;2.05;0.80;;;13.30;99.90;;;;;;5056232;28;20024;-48
2023/10/05 03:19:59;;;;;;;4.85;1.00;;;13.30;99.90;;;;;;5054459;28;20056;-51
2023/10/05 03:22:24;;;;;;;3.83;1.10;;;13.20;99.90;;;;;;5059011;28;20075;-55
2023/10/05 03:24:50;;;;;;;6.47;2.00;;;13.30;99.90;;;;;;5057914;28;20020;-47
2023/10/05 03:27:16;;;;;;;3.00;1.05;;;13.30;99.90;;;;;;5068331;28;20421;-48
2023/10/05 03:29:52;;;;;;;2.08;0.80;;;13.20;99.90;;;;;;5062018;28;20045;-46
2023/10/05 03:32:19;;;;;;;1.92;1.00;;;13.20;99.90;;;;;;5058591;28;20122;-52
2023/10/05 03:34:55;;;;;;;3.78;1.15;;;13.10;99.90;;;;;;5056115;28;20033;-54
2023/10/05 03:37:22;;;;;;;2.30;0.90;;;13.00;99.90;;;;;;5059081;28;20037;-53
2023/10/05 03:40:01;;;;;;;1.48;0.80;;;13.00;99.90;;;;;;5063184;28;20024;-50
2023/10/05 03:42:27;;;;;;;2.47;1.10;;;13.00;99.90;;;;;;5064750;28;20385;-48
2023/10/05 03:47:49;;;;;;;2.13;1.00;;;13.00;99.90;;;;;;5040735;28;20067;-45
2023/10/05 03:50:18;;;;;;;4.07;1.15;;;13.00;99.90;;;;;;5069036;28;20048;-46
2023/10/05 03:52:45;;;;;;;4.00;0.95;;;13.10;99.90;;;;;;5068102;28;20558;-47
2023/10/05 03:55:11;;;;;;;3.72;1.23;;;13.10;99.90;;;;;;5069482;28;20036;-48
2023/10/05 03:57:44;;;;;;;3.55;1.02;;;13.10;99.90;;;;;;5069644;28;20069;-45
2023/10/05 04:00:23;;;;;;;3.67;1.10;;;13.20;99.90;;;;;;5069460;28;20020;-56
2023/10/05 04:02:53;;;;;;;1.58;0.75;;;13.20;99.90;;;;;;5069434;28;20025;-46
2023/10/05 04:05:22;;;;;;;4.80;1.20;;;13.20;99.90;;;;;;5069564;28;20663;-54
2023/10/05 04:07:49;;;;;;;3.10;1.40;;;13.20;99.90;;;;;;5069485;28;20025;-45
2023/10/05 04:10:20;;;;;;;3.17;1.00;;;13.20;99.90;;;;;;5069709;28;20024;-52
2023/10/05 04:12:46;;;;;;;3.72;1.27;;;13.20;99.90;;;;;;5069615;28;20020;-52
2023/10/05 04:15:12;;;;;;;3.45;1.15;;;13.20;99.90;;;;;;5069504;28;20028;-48
2023/10/05 04:17:39;;;;;;;4.05;0.90;;;13.20;99.90;;;;;;5068729;28;20350;-49
2023/10/05 04:20:09;;;;;;;3.78;1.30;;;13.20;99.90;;;;;;5069414;28;20024;-46
2023/10/05 04:22:37;;;;;;;2.70;1.20;;;13.20;99.90;;;;;;5069256;28;20452;-57
2023/10/05 04:25:04;;;;;;;5.28;1.40;;;13.30;99.90;;;;;;5069553;28;20036;-44
2023/10/05 04:27:30;;;;;;;4.68;1.33;;;13.20;99.90;;;;;;5069393;28;20021;-45
2023/10/05 04:29:56;;;;;;;3.20;0.93;;;13.30;99.90;;;;;;5069117;28;20036;-50
2023/10/05 04:32:21;;;;;;;4.43;1.10;;;13.30;99.90;;;;;;5069114;28;20036;-46
2023/10/05 04:34:47;;;;;;;4.75;1.60;;;13.30;99.90;;;;;;5068856;28;20032;-46
2023/10/05 04:37:12;;;;;;;2.67;1.00;;;13.30;99.90;;;;;;5069281;28;20020;-50
2023/10/05 04:39:40;;;;;;;2.72;0.90;;;13.30;99.90;;;;;;5069253;28;20040;-46
2023/10/05 04:42:11;;;;;;;4.72;1.10;;;13.30;99.90;;;;;;5070812;28;20484;-51
2023/10/05 04:44:37;;;;;;;2.33;0.98;;;13.20;99.90;;;;;;5072327;28;20473;-47
2023/10/05 04:47:04;;;;;;;3.72;1.38;;;13.10;99.90;;;;;;5072701;28;20036;-48
2023/10/05 04:49:30;;;;;;;2.30;0.90;;;13.10;99.90;;;;;;5062704;28;20428;-50
2023/10/05 04:51:57;;;;;;;4.90;1.25;;;13.10;99.90;;;;;;5063774;28;20490;-47
2023/10/05 04:54:26;;;;;;;3.92;1.25;;;13.10;99.90;;;;;;5072305;28;20055;-45
2023/10/05 04:57:03;;;;;;;2.95;1.35;;;13.00;99.90;;;;;;5064116;28;20025;-46
2023/10/05 04:59:48;;;;;;;1.85;0.80;;;13.00;99.90;;;;;;5064099;28;20094;-46
2023/10/05 05:02:35;;;;;;;3.20;1.10;;;13.00;99.90;;;;;;5062371;28;20025;-55
2023/10/05 05:05:53;;;;;;;3.05;1.25;;;13.00;99.90;;;;;;5042208;28;20435;-56
2023/10/05 05:07:51;;;;;;;3.72;0.80;;;13.00;99.90;;;;;;5053388;28;20040;-47
2023/10/05 05:10:20;;;;;;;8.80;1.20;;;13.00;99.90;;;;;;5068399;28;20120;-54
2023/10/05 05:12:46;;;;;;;1.92;1.08;;;13.00;99.90;;;;;;5057968;28;20024;-54
2023/10/05 05:15:13;;;;;;;3.33;0.90;;;13.00;99.90;;;;;;5066554;28;20036;-46
2023/10/05 05:17:40;;;;;;;4.45;1.30;;;13.00;99.90;;;;;;5060649;28;20024;-53
2023/10/05 05:20:11;;;;;;;4.18;1.20;;;13.00;99.90;;;;;;5068563;28;20063;-51
2023/10/05 05:22:37;;;;;;;4.30;0.82;;;13.00;99.90;;;;;;5066443;28;20024;-45
2023/10/05 05:25:06;;;;;;;2.63;1.02;;;13.00;99.90;;;;;;5059142;28;20041;-45
2023/10/05 05:27:33;;;;;;;6.65;1.20;;;13.10;99.90;;;;;;5065709;28;20044;-51
2023/10/05 05:29:59;;;;;;;3.53;1.02;;;13.00;99.90;;;;;;5060551;28;20044;-53
2023/10/05 05:32:24;;;;;;;2.72;1.15;;;13.10;99.90;;;;;;5056028;28;20086;-47
2023/10/05 05:34:50;;;;;;;5.53;1.63;;;13.10;99.90;;;;;;5035894;28;20032;-45
2023/10/05 05:37:28;;;;;;;2.97;1.10;;;13.10;99.90;;;;;;5062621;28;20032;-50
2023/10/05 05:40:12;;;;;;;3.08;1.30;;;13.20;99.90;;;;;;5059902;28;20033;-46
2023/10/05 05:42:37;;;;;;;4.20;1.48;;;13.20;99.90;;;;;;5066254;28;20427;-53
2023/10/05 05:45:08;;;;;;;3.85;1.00;;;13.20;99.90;;;;;;5062583;28;20070;-51
2023/10/05 05:47:34;;;;;;;4.57;1.15;;;13.10;99.90;;;;;;5058508;28;20044;-45
2023/10/05 05:50:01;;;;;;;2.35;0.90;;;13.10;99.90;;;;;;5053261;28;20037;-45
2023/10/05 05:52:27;;;;;;;2.83;1.02;;;13.10;99.90;;;;;;5059622;28;20024;-51
2023/10/05 05:54:52;;;;;;;1.67;1.00;;;13.10;99.90;;;;;;5060307;28;20025;-50
2023/10/05 05:57:20;;;;;;;3.17;1.10;;;13.00;99.90;;;;;;5062581;28;20086;-51
2023/10/05 05:59:46;;;;;;;2.75;0.85;;;13.00;99.90;;;;;;5063165;28;20037;-51
2023/10/05 06:02:12;;;;;;;2.55;0.90;;;13.00;99.90;;;;;;5060845;28;20151;-46
2023/10/05 06:04:40;;;;;;;2.80;1.10;;;13.00;99.90;;;;;;5070946;28;20029;-51
2023/10/05 06:07:13;;;;;;;5.05;0.98;;;13.00;99.90;;;;;;5054010;28;20537;-49
2023/10/05 06:09:43;;;;;;;10.32;1.30;;;13.00;99.90;;;;;;5069849;28;20131;-45
2023/10/05 06:12:12;;;;;;;2.72;1.13;;;13.00;99.90;;;;;;5054586;28;20547;-51
2023/10/05 06:14:41;;;;;;;2.00;0.82;;;13.00;99.90;;;;;;5065914;28;20032;-54
2023/10/05 06:17:08;;;;;;;3.17;0.88;;;13.10;99.90;;;;;;5055530;28;20033;-45
2023/10/05 06:19:35;;;;;;;2.33;1.02;;;13.10;99.90;;;;;;5061192;28;20033;-49
2023/10/05 06:22:03;;;;;;;4.05;1.55;;;13.10;99.90;;;;;;5065316;28;20396;-47
2023/10/05 06:24:29;;;;;;;3.13;1.23;;;13.20;99.90;;;;;;5067707;28;20052;-53
2023/10/05 06:26:55;;;;;;;3.10;1.40;;;13.20;99.90;;;;;;5065854;28;20060;-52
2023/10/05 06:29:20;;;;;;;3.33;0.90;;;13.20;99.90;;;;;;5056209;28;20379;-48
2023/10/05 06:31:46;;;;;;;3.72;1.15;;;13.20;99.90;;;;;;5053295;28;20029;-50
2023/10/05 06:34:11;;;;;;;3.92;1.15;;;13.20;99.90;;;;;;5069163;28;20048;-53
2023/10/05 06:36:37;;;;;;;3.10;1.10;;;13.30;99.90;;;;;;5070754;28;20113;-49
2023/10/05 06:39:06;;;;;;;3.00;1.00;;;13.30;99.90;;;;;;5070287;28;20120;-50
2023/10/05 06:41:36;;;;;;;2.83;1.05;;;13.30;99.90;;;;;;5070916;28;20066;-51
2023/10/05 06:44:02;;;;;;;8.65;1.60;;;13.40;99.90;;;;;;5070575;28;20038;-56
2023/10/05 06:46:28;;;;;;;1.80;0.70;;;13.40;99.90;;;;;;5070219;28;20028;-54
2023/10/05 06:48:55;;;;;;;5.40;1.10;;;13.40;99.90;;;;;;5068398;28;20140;-52
2023/10/05 06:51:27;;;;;;;4.57;1.58;;;13.40;99.90;;;;;;5054706;28;20039;-52
2023/10/05 06:53:53;;;;;;;5.15;1.00;;;13.40;99.90;;;;;;5057381;28;20043;-50
2023/10/05 06:56:20;;;;;;;6.25;1.60;;;13.50;99.90;;;;;;5068743;28;20528;-46
2023/10/05 06:58:46;;;;;;;3.78;1.20;;;13.40;99.90;;;;;;5053744;28;20485;-47
2023/10/05 07:01:11;;;;;;;3.47;0.90;;;13.40;99.90;;;;;;5066839;28;20021;-45
2023/10/05 07:03:38;;;;;;;3.05;1.08;;;13.40;99.90;;;;;;5070010;28;20439;-46
2023/10/05 07:06:04;;;;;;;3.83;1.00;;;13.30;99.90;;;;;;5069972;28;20021;-55
2023/10/05 07:08:33;;;;;;;3.08;1.10;;;13.30;99.90;;;;;;5070007;28;20135;-49
2023/10/05 07:10:59;;;;;;;2.85;1.15;;;13.30;99.90;;;;;;5069744;28;20036;-52
2023/10/05 07:13:28;;;;;;;3.28;0.98;;;13.30;99.90;;;;;;5069980;28;20449;-51
2023/10/05 07:15:55;;;;;;;1.58;0.80;;;13.40;99.90;;;;;;5070459;28;20027;-52
2023/10/05 07:18:21;;;;;;;1.85;0.90;;;13.40;99.90;;;;;;5069902;28;20109;-47
2023/10/05 07:20:48;;;;;;;1.75;1.00;;;13.40;99.90;;;;;;5070271;28;20028;-54
2023/10/05 07:23:14;;;;;;;2.97;1.13;;;13.50;99.90;;;;;;5070389;28;20056;-47
2023/10/05 07:25:41;;;;;;;2.53;1.10;;;13.50;99.90;;;;;;5069834;28;20515;-45
2023/10/05 07:28:14;;;;;;;3.28;1.13;;;13.50;99.90;;;;;;5069127;28;20036;-47
2023/10/05 07:30:41;;;;;;;4.28;1.45;;;13.50;99.90;;;;;;5069690;28;20498;-47
2023/10/05 07:33:06;;;;;;;3.17;1.45;;;13.60;99.90;;;;;;5070059;28;20063;-49
2023/10/05 07:35:32;;;;;;;6.03;1.52;;;13.70;99.90;;;;;;5070044;28;20690;-56
2023/10/05 07:37:59;;;;;;;5.20;1.30;;;13.70;99.90;;;;;;5070110;28;20021;-56
2023/10/05 07:40:25;;;;;;;2.08;1.17;;;13.80;99.90;;;;;;5070102;28;20033;-45
2023/10/05 07:42:51;;;;;;;3.42;1.27;;;13.90;99.90;;;;;;5064762;28;20031;-55
2023/10/05 07:45:17;;;;;;;4.55;1.73;;;13.90;99.90;;;;;;5069785;28;20103;-46
2023/10/05 07:47:48;;;;;;;4.30;1.45;;;14.00;99.90;;;;;;5069955;28;20036;-46
2023/10/05 07:50:14;;;;;;;5.03;1.42;;;14.20;99.90;;;;;;5062752;28;20090;-48
2023/10/05 07:52:43;;;;;;;4.93;1.48;;;14.40;99.90;;;;;;5053901;28;20017;-53
2023/10/05 07:55:10;;;;;;;4.28;1.27;;;14.60;99.90;;;;;;5063286;28;20500;-47
2023/10/05 07:57:35;;;;;;;3.28;1.33;;;14.80;99.90;;;;;;5057580;28;20047;-51
2023/10/05 08:00:03;;;;;;;3.72;1.08;;;15.10;99.90;;;;;;5069471;28;20035;-45
2023/10/05 08:02:29;;;;;;;3.13;1.35;;;15.30;99.90;;;;;;5069152;28;20093;-45
2023/10/05 08:04:54;;;;;;;2.63;1.08;;;15.50;99.90;;;;;;5059403;28;20037;-54
2023/10/05 08:07:20;;;;;;;3.45;1.10;;;15.60;99.90;;;;;;5067861;28;20527;-47
2023/10/05 08:09:46;;;;;;;3.22;1.27;;;16.00;99.90;;;;;;5046444;28;20040;-48
2023/10/05 08:12:12;;;;;;;3.60;1.30;;;16.50;99.90;;;;;;5060389;28;20021;-54
2023/10/05 08:14:38;;;;;;;6.88;1.20;;;17.00;99.90;;;;;;5069011;28;20043;-54
2023/10/05 08:17:03;;;;;;;2.97;0.93;;;17.50;99.90;;;;;;5071063;28;20021;-50
2023/10/05 08:19:29;;;;;;;2.63;1.00;;;17.60;99.90;;;;;;5073599;28;20031;-50
2023/10/05 08:21:55;;;;;;;2.42;0.80;;;17.70;99.90;;;;;;5073558;28;20396;-51
2023/10/05 08:24:23;;;;;;;3.63;1.05;;;17.70;99.90;;;;;;5073403;28;20078;-56
2023/10/05 08:26:52;;;;;;;3.55;1.20;;;18.00;99.90;;;;;;5073670;28;20044;-47
2023/10/05 08:29:22;;;;;;;1.75;1.08;;;18.50;99.90;;;;;;5072897;28;20044;-47
2023/10/05 08:31:48;;;;;;;3.67;0.95;;;19.20;99.90;;;;;;5072990;28;20028;-48
2023/10/05 08:34:23;;;;;;;3.60;1.00;;;19.30;99.90;;;;;;5073372;28;20087;-49
2023/10/05 08:36:54;;;;;;;2.88;0.90;;;19.40;99.90;;;;;;5070209;28;20024;-52
2023/10/05 08:39:25;;;;;;;3.28;0.60;;;19.40;99.90;;;;;;5073759;28;20043;-47
2023/10/05 08:41:55;;;;;;;2.05;0.90;;;19.30;99.90;;;;;;5073350;28;20028;-47
2023/10/05 08:44:27;;;;;;;4.00;1.20;;;19.30;99.90;;;;;;5072145;28;20099;-48
2023/10/05 08:46:55;;;;;;;6.07;1.33;;;19.50;99.90;;;;;;5072870;28;20032;-47
2023/10/05 08:49:27;;;;;;;1.55;0.55;;;19.30;99.90;;;;;;5061100;28;20110;-53
2023/10/05 08:51:52;;;;;;;2.72;0.77;;;19.30;99.90;;;;;;5068580;28;20166;-49
2023/10/05 08:54:21;;;;;;;2.65;0.82;;;18.80;99.90;;;;;;5066154;28;20422;-58
2023/10/05 08:56:48;;;;;;;3.17;1.02;;;18.50;99.90;;;;;;5067108;28;20031;-46
2023/10/05 08:59:14;;;;;;;6.15;1.33;;;18.30;99.90;;;;;;5065277;28;20016;-49
2023/10/05 09:01:46;;;;;;;4.10;1.02;;;18.20;99.90;;;;;;5071557;28;20105;-47
2023/10/05 09:06:55;;;;;;;4.90;1.20;;;18.20;99.90;;;;;;5071904;28;20032;-47
2023/10/05 09:09:38;;;;;;;2.47;0.68;;;18.70;99.90;;;;;;5067715;28;20036;-48
2023/10/05 09:12:34;;;;;;;1.90;0.80;;;18.70;99.90;;;;;;5069668;28;20028;-48
2023/10/05 09:15:14;;;;;;;2.53;0.70;;;18.60;99.90;;;;;;5067560;28;20060;-53
2023/10/05 09:17:58;;;;;;;1.90;0.70;;;18.60;99.90;;;;;;5068653;28;20132;-49
2023/10/05 09:20:24;;;;;;;4.07;1.50;;;18.80;99.90;;;;;;5070604;28;20548;-49
2023/10/05 09:22:56;;;;;;;2.55;1.00;;;18.80;99.90;;;;;;5071981;28;20021;-57
2023/10/05 09:25:27;;;;;;;3.40;1.23;;;18.80;99.90;;;;;;5071366;28;20142;-47
2023/10/05 09:27:59;;;;;;;4.22;0.80;;;18.60;99.90;;;;;;5066641;28;20542;-53
2023/10/05 09:30:29;;;;;;;2.00;0.57;;;18.60;99.90;;;;;;5063941;28;20400;-48
2023/10/05 09:33:10;;;;;;;5.45;0.95;;;18.80;99.90;;;;;;5050206;28;20040;-50
2023/10/05 09:35:36;;;;;;;2.17;0.80;;;18.70;99.90;;;;;;5065654;28;20094;-50
2023/10/05 09:38:05;;;;;;;3.08;0.90;;;18.80;99.90;;;;;;5072018;28;20020;-57
2023/10/05 09:40:31;;;;;;;4.45;1.10;;;18.60;99.90;;;;;;5072146;28;20028;-53
2023/10/05 09:42:59;;;;;;;5.90;0.85;;;18.50;99.90;;;;;;5072164;28;20013;-60
2023/10/05 09:45:29;;;;;;;4.70;1.38;;;18.60;99.90;;;;;;5072199;28;20119;-61
2023/10/05 09:48:01;;;;;;;2.75;0.80;;;18.40;99.90;;;;;;5069895;28;20425;-60
2023/10/05 09:50:29;;;;;;;2.90;1.02;;;18.50;99.90;;;;;;5053344;28;20041;-53
2023/10/05 09:53:02;;;;;;;5.60;0.80;;;18.50;99.90;;;;;;5069973;28;20433;-57
2023/10/05 09:55:30;;;;;;;4.18;1.75;;;18.50;99.90;;;;;;5064791;28;20097;-56
2023/10/05 09:58:05;;;;;;;3.20;1.05;;;18.40;99.90;;;;;;5057492;28;20025;-52
2023/10/05 10:03:03;;;;;;;4.03;1.33;;;18.60;99.90;;;;;;5070955;28;20111;-49
2023/10/05 10:05:44;;;;;;;1.98;0.95;;;18.70;99.90;;;;;;5062773;28;20025;-59
2023/10/05 10:08:21;;;;;;;4.28;1.23;;;19.00;99.90;;;;;;5071625;28;20099;-55
2023/10/05 10:11:09;;;;;;;5.22;1.45;;;19.30;99.90;;;;;;5071705;28;20032;-51
2023/10/05 10:13:37;;;;;;;5.68;1.40;;;19.40;99.90;;;;;;5067518;28;20021;-58
2023/10/05 10:16:26;;;;;;;2.70;1.30;;;19.20;99.90;;;;;;5069662;28;20690;-50
2023/10/05 10:19:07;;;;;;;2.30;1.13;;;19.40;99.90;;;;;;5069505;28;20032;-43
2023/10/05 10:21:47;;;;;;;2.80;1.00;;;20.00;99.90;;;;;;5069423;28;20098;-45
2023/10/05 10:24:17;;;;;;;3.22;0.98;;;20.80;99.90;;;;;;5069522;28;20024;-45
2023/10/05 10:27:08;;;;;;;3.10;0.80;;;21.40;99.90;;;;;;5069501;28;20495;-47
2023/10/05 10:29:55;;;;;;;1.73;0.88;;;21.20;99.90;;;;;;5064890;28;20028;-51
2023/10/05 10:32:24;;;;;;;8.68;1.35;;;21.70;99.90;;;;;;5065540;28;20135;-51
2023/10/05 10:34:55;;;;;;;5.53;1.42;;;22.50;99.90;;;;;;5056652;28;20489;-50
2023/10/05 10:37:38;;;;;;;2.58;0.95;;;22.80;99.90;;;;;;5059611;28;20079;-47
2023/10/05 10:40:13;;;;;;;4.13;0.85;;;22.90;99.90;;;;;;5056185;28;20028;-54
2023/10/05 10:43:06;;;;;;;5.85;1.05;;;23.30;99.90;;;;;;5060329;28;20392;-55
2023/10/05 10:45:46;;;;;;;2.78;0.73;;;23.60;99.90;;;;;;5064750;28;20107;-51
2023/10/05 10:48:20;;;;;;;1.95;0.95;;;23.70;99.90;;;;;;5063234;28;20032;-50
2023/10/05 10:50:47;;;;;;;2.17;0.80;;;24.00;99.90;;;;;;5060641;28;20504;-55
2023/10/05 10:53:18;;;;;;;3.35;0.93;;;24.20;99.90;;;;;;5067773;28;20029;-51
2023/10/05 10:55:47;;;;;;;2.15;0.80;;;24.10;99.90;;;;;;5057134;28;20113;-51
2023/10/05 10:58:16;;;;;;;2.67;0.85;;;24.50;99.90;;;;;;5057176;28;20099;-51
2023/10/05 11:01:13;;;;;;;3.42;0.77;;;24.20;99.90;;;;;;5070294;28;20027;-48
2023/10/05 11:03:41;;;;;;;2.47;0.80;;;23.60;99.90;;;;;;5069925;28;20054;-55
2023/10/05 11:06:09;;;;;;;3.85;0.85;;;22.80;99.90;;;;;;5061982;28;20429;-55
2023/10/05 11:08:40;;;;;;;2.65;0.82;;;22.70;99.90;;;;;;5066688;28;20378;-49
2023/10/05 11:11:15;;;;;;;4.50;0.80;;;22.90;99.90;;;;;;5069857;28;20449;-53
2023/10/05 11:14:00;;;;;;;3.53;0.85;;;22.50;99.90;;;;;;5069988;28;20023;-54
2023/10/05 11:16:43;;;;;;;2.30;0.98;;;22.30;99.90;;;;;;5069822;28;20071;-52
2023/10/05 11:19:13;;;;;;;2.90;1.02;;;22.30;99.90;;;;;;5070257;28;20028;-54
2023/10/05 11:21:45;;;;;;;1.70;0.73;;;22.70;99.90;;;;;;5069868;28;20238;-51
2023/10/05 11:24:15;;;;;;;2.85;0.90;;;22.80;99.90;;;;;;5069971;28;20370;-52
2023/10/05 11:29:42;;;;;;;3.85;1.00;;;21.90;99.90;;;;;;5069838;28;20024;-52
2023/10/05 11:32:12;;;;;;;3.35;1.10;;;21.40;99.90;;;;;;5069639;28;20056;-47
2023/10/05 11:34:42;;;;;;;7.75;1.23;;;21.10;99.90;;;;;;5069868;28;20066;-55
2023/10/05 11:37:15;;;;;;;1.88;0.77;;;20.90;99.90;;;;;;5069528;28;20040;-52
2023/10/05 11:39:45;;;;;;;2.42;1.10;;;21.20;99.90;;;;;;5069899;28;20449;-47
2023/10/05 11:42:11;;;;;;;3.38;1.10;;;21.30;99.90;;;;;;5069799;28;20033;-48
2023/10/05 11:44:38;;;;;;;4.30;1.10;;;21.00;99.90;;;;;;5069895;28;20025;-54
2023/10/05 11:47:07;;;;;;;4.95;0.98;;;20.50;99.90;;;;;;5064841;28;20392;-54
2023/10/05 11:49:33;;;;;;;2.08;0.73;;;20.20;99.90;;;;;;5054676;28;20044;-55
2023/10/05 11:52:00;;;;;;;2.78;1.00;;;19.90;99.90;;;;;;5060331;28;20025;-46
2023/10/05 11:54:29;;;;;;;2.95;0.95;;;19.60;99.90;;;;;;5071855;28;20101;-51
2023/10/05 11:56:55;;;;;;;2.97;1.00;;;19.30;99.90;;;;;;5071160;28;20095;-52
2023/10/05 11:59:35;;;;;;;3.85;1.15;;;19.00;99.90;;;;;;5068276;28;20174;-53
2023/10/05 12:02:05;;;;;;;2.40;0.70;;;18.80;99.90;;;;;;5055283;28;20017;-52
2023/10/05 12:04:31;;;;;;;2.60;1.20;;;18.60;99.90;;;;;;5073384;28;20051;-56
2023/10/05 12:07:00;;;;;;;1.83;0.80;;;18.50;99.90;;;;;;5073456;28;20025;-51
2023/10/05 12:09:34;;;;;;;5.03;1.30;;;18.40;99.90;;;;;;5069741;28;20041;-49
2023/10/05 12:12:01;;;;;;;3.83;1.08;;;18.50;99.90;;;;;;5071304;28;20033;-53
2023/10/05 12:14:27;;;;;;;6.00;1.15;;;18.60;99.90;;;;;;5064230;28;20038;-46
2023/10/05 12:16:56;;;;;;;3.65;1.13;;;18.70;99.90;;;;;;5073450;28;20384;-45
2023/10/05 12:19:27;;;;;;;5.15;1.27;;;18.90;99.90;;;;;;5073332;28;20024;-45
2023/10/05 12:21:55;;;;;;;4.13;1.40;;;19.10;99.90;;;;;;5072698;28;20435;-44
2023/10/05 12:24:21;;;;;;;5.88;1.60;;;19.30;99.90;;;;;;5073287;28;20024;-49
2023/10/05 12:26:47;;;;;;;3.55;1.15;;;19.40;99.90;;;;;;5073037;28;20422;-60
2023/10/05 12:29:12;;;;;;;2.38;1.10;;;19.40;99.90;;;;;;5072951;28;20132;-60
2023/10/05 12:31:44;;;;;;;3.45;1.25;;;19.60;99.90;;;;;;5055145;28;20485;-59
2023/10/05 12:34:14;;;;;;;3.50;1.10;;;19.60;99.90;;;;;;5072686;28;20103;-58
2023/10/05 12:36:49;;;;;;;2.95;1.30;;;19.60;99.90;;;;;;5069987;28;20533;-45
2023/10/05 12:39:18;;;;;;;1.70;0.90;;;19.30;99.90;;;;;;5063858;28;20093;-54
2023/10/05 12:41:46;;;;;;;4.15;1.00;;;19.00;99.90;;;;;;5072362;28;20091;-50
2023/10/05 12:44:15;;;;;;;2.15;1.20;;;19.00;99.90;;;;;;5072887;28;20035;-55
2023/10/05 12:46:41;;;;;;;3.37;1.10;;;18.80;99.90;;;;;;5072989;28;20036;-48
2023/10/05 12:49:11;;;;;;;5.63;1.17;;;18.60;99.90;;;;;;5060978;28;20746;-45
2023/10/05 12:51:38;;;;;;;5.13;1.05;;;18.40;99.90;;;;;;5052174;28;20104;-46
2023/10/05 12:54:08;;;;;;;11.85;2.65;;;18.50;99.90;;;;;;5052760;28;20021;-46
2023/10/05 12:56:40;;;;;;;12.10;2.00;;;18.40;99.90;;;;;;5052801;28;20104;-45
2023/10/05 12:59:07;;;;;;;7.75;1.75;;;18.50;99.90;;;;;;5052611;28;20064;-46
2023/10/05 13:01:41;;;;;;;4.68;1.20;;;18.40;99.90;;;;;;5064948;28;20036;-47
2023/10/05 13:04:08;;;;;;;3.45;1.08;;;18.50;99.90;;;;;;5068652;28;20028;-55
2023/10/05 13:06:34;;;;;;;3.70;1.00;;;18.50;99.90;;;;;;5055504;28;20041;-46
2023/10/05 13:09:04;;;;;;;2.35;1.05;;;18.60;99.90;;;;;;5053251;28;20017;-47
2023/10/05 13:11:33;;;;;;;1.50;0.93;;;18.80;99.90;;;;;;5066066;28;20028;-46
2023/10/05 13:13:58;;;;;;;2.50;0.82;;;19.00;99.90;;;;;;5058067;28;20107;-52
2023/10/05 13:16:24;;;;;;;3.28;1.10;;;19.10;99.90;;;;;;5071941;28;20115;-46
2023/10/05 13:18:50;;;;;;;2.08;0.80;;;19.20;99.90;;;;;;5072050;28;20028;-48
2023/10/05 13:21:16;;;;;;;1.02;0.60;;;19.30;99.90;;;;;;5071069;28;20060;-47